sensor_id;sensor_type;location;lat;lon;timestamp;temperature;humidity
68746;SHT31;66104;45.456;11.064;2023-05-24T00:00:56;23.52;50.32
68746;SHT31;66104;45.456;11.064;2023-05-24T00:03:35;23.54;50.20
68746;SHT31;66104;45.456;11.064;2023-05-24T00:06:14;23.55;50.19
68746;SHT31;66104;45.456;11.064;2023-05-24T00:08:50;23.57;50.02
68746;SHT31;66104;45.456;11.064;2023-05-24T00:11:28;23.54;49.95
68746;SHT31;66104;45.456;11.064;2023-05-24T00:14:04;23.54;49.96
68746;SHT31;66104;45.456;11.064;2023-05-24T00:16:41;23.55;49.91
68746;SHT31;66104;45.456;11.064;2023-05-24T00:19:18;23.53;49.90
68746;SHT31;66104;45.456;11.064;2023-05-24T00:21:55;23.52;49.90
68746;SHT31;66104;45.456;11.064;2023-05-24T00:24:31;23.52;49.96
68746;SHT31;66104;45.456;11.064;2023-05-24T00:27:08;23.51;49.86
68746;SHT31;66104;45.456;11.064;2023-05-24T00:29:45;23.50;49.92
68746;SHT31;66104;45.456;11.064;2023-05-24T00:32:21;23.50;49.97
68746;SHT31;66104;45.456;11.064;2023-05-24T00:34:58;23.50;49.98
68746;SHT31;66104;45.456;11.064;2023-05-24T00:37:35;23.46;49.96
68746;SHT31;66104;45.456;11.064;2023-05-24T00:40:13;23.39;50.12
68746;SHT31;66104;45.456;11.064;2023-05-24T00:42:50;23.31;50.33
68746;SHT31;66104;45.456;11.064;2023-05-24T00:45:27;23.27;50.47
68746;SHT31;66104;45.456;11.064;2023-05-24T00:48:05;23.22;50.56
68746;SHT31;66104;45.456;11.064;2023-05-24T00:50:42;23.17;50.68
68746;SHT31;66104;45.456;11.064;2023-05-24T00:53:19;23.13;50.82
68746;SHT31;66104;45.456;11.064;2023-05-24T00:55:56;23.04;51.01
68746;SHT31;66104;45.456;11.064;2023-05-24T00:58:34;22.98;51.10
68746;SHT31;66104;45.456;11.064;2023-05-24T01:01:10;22.98;51.15
68746;SHT31;66104;45.456;11.064;2023-05-24T01:03:46;22.97;51.09
68746;SHT31;66104;45.456;11.064;2023-05-24T01:06:22;22.93;51.24
68746;SHT31;66104;45.456;11.064;2023-05-24T01:09:05;22.90;51.29
68746;SHT31;66104;45.456;11.064;2023-05-24T01:11:56;22.90;51.35
68746;SHT31;66104;45.456;11.064;2023-05-24T01:14:44;22.88;51.35
68746;SHT31;66104;45.456;11.064;2023-05-24T01:17:35;22.84;51.42
68746;SHT31;66104;45.456;11.064;2023-05-24T01:20:22;22.77;51.53
68746;SHT31;66104;45.456;11.064;2023-05-24T01:23:06;22.74;51.62
68746;SHT31;66104;45.456;11.064;2023-05-24T01:26:02;22.74;51.69
68746;SHT31;66104;45.456;11.064;2023-05-24T01:29:07;22.67;51.85
68746;SHT31;66104;45.456;11.064;2023-05-24T01:31:46;22.61;52.07
68746;SHT31;66104;45.456;11.064;2023-05-24T01:34:23;22.50;52.35
68746;SHT31;66104;45.456;11.064;2023-05-24T01:36:59;22.40;52.80
68746;SHT31;66104;45.456;11.064;2023-05-24T01:39:39;22.28;53.18
68746;SHT31;66104;45.456;11.064;2023-05-24T01:42:18;22.26;53.29
68746;SHT31;66104;45.456;11.064;2023-05-24T01:45:07;22.28;53.27
68746;SHT31;66104;45.456;11.064;2023-05-24T01:47:54;22.33;53.12
68746;SHT31;66104;45.456;11.064;2023-05-24T01:50:47;22.30;53.11
68746;SHT31;66104;45.456;11.064;2023-05-24T01:53:29;22.28;53.05
68746;SHT31;66104;45.456;11.064;2023-05-24T01:56:11;22.29;53.30
68746;SHT31;66104;45.456;11.064;2023-05-24T01:58:49;22.29;53.26
68746;SHT31;66104;45.456;11.064;2023-05-24T02:01:30;22.29;53.19
68746;SHT31;66104;45.456;11.064;2023-05-24T02:04:06;22.33;53.40
68746;SHT31;66104;45.456;11.064;2023-05-24T02:06:45;22.36;53.83
68746;SHT31;66104;45.456;11.064;2023-05-24T02:09:21;22.38;53.48
68746;SHT31;66104;45.456;11.064;2023-05-24T02:11:57;22.39;53.63
68746;SHT31;66104;45.456;11.064;2023-05-24T02:14:35;22.43;53.33
68746;SHT31;66104;45.456;11.064;2023-05-24T02:17:12;22.43;53.45
68746;SHT31;66104;45.456;11.064;2023-05-24T02:19:48;22.42;53.32
68746;SHT31;66104;45.456;11.064;2023-05-24T02:22:26;22.39;53.07
68746;SHT31;66104;45.456;11.064;2023-05-24T02:25:04;22.32;53.22
68746;SHT31;66104;45.456;11.064;2023-05-24T02:27:43;22.31;53.36
68746;SHT31;66104;45.456;11.064;2023-05-24T02:30:19;22.33;53.42
68746;SHT31;66104;45.456;11.064;2023-05-24T02:32:55;22.30;53.39
68746;SHT31;66104;45.456;11.064;2023-05-24T02:35:31;22.27;53.32
68746;SHT31;66104;45.456;11.064;2023-05-24T02:38:08;22.24;53.34
68746;SHT31;66104;45.456;11.064;2023-05-24T02:40:45;22.21;53.48
68746;SHT31;66104;45.456;11.064;2023-05-24T02:43:22;22.17;53.65
68746;SHT31;66104;45.456;11.064;2023-05-24T02:45:58;22.15;53.71
68746;SHT31;66104;45.456;11.064;2023-05-24T02:48:34;22.14;53.88
68746;SHT31;66104;45.456;11.064;2023-05-24T02:51:10;22.13;53.93
68746;SHT31;66104;45.456;11.064;2023-05-24T02:53:47;22.11;54.01
68746;SHT31;66104;45.456;11.064;2023-05-24T02:56:23;22.09;54.14
68746;SHT31;66104;45.456;11.064;2023-05-24T02:59:00;22.09;54.20
68746;SHT31;66104;45.456;11.064;2023-05-24T03:01:36;22.07;54.05
68746;SHT31;66104;45.456;11.064;2023-05-24T03:04:13;22.05;54.37
68746;SHT31;66104;45.456;11.064;2023-05-24T03:06:50;22.00;54.70
68746;SHT31;66104;45.456;11.064;2023-05-24T03:09:27;21.95;54.80
68746;SHT31;66104;45.456;11.064;2023-05-24T03:12:02;21.91;55.13
68746;SHT31;66104;45.456;11.064;2023-05-24T03:14:42;21.90;55.27
68746;SHT31;66104;45.456;11.064;2023-05-24T03:17:18;21.89;55.81
68746;SHT31;66104;45.456;11.064;2023-05-24T03:19:54;21.85;56.44
68746;SHT31;66104;45.456;11.064;2023-05-24T03:22:31;21.80;56.71
68746;SHT31;66104;45.456;11.064;2023-05-24T03:25:08;21.67;56.98
68746;SHT31;66104;45.456;11.064;2023-05-24T03:27:45;21.52;57.33
68746;SHT31;66104;45.456;11.064;2023-05-24T03:30:22;21.47;57.52
68746;SHT31;66104;45.456;11.064;2023-05-24T03:32:59;21.47;57.69
68746;SHT31;66104;45.456;11.064;2023-05-24T03:35:36;21.43;57.73
68746;SHT31;66104;45.456;11.064;2023-05-24T03:38:13;21.34;57.64
68746;SHT31;66104;45.456;11.064;2023-05-24T03:40:49;21.24;57.77
68746;SHT31;66104;45.456;11.064;2023-05-24T03:43:25;21.17;57.94
68746;SHT31;66104;45.456;11.064;2023-05-24T03:46:04;21.17;57.97
68746;SHT31;66104;45.456;11.064;2023-05-24T03:48:42;21.17;58.22
68746;SHT31;66104;45.456;11.064;2023-05-24T03:51:18;21.10;58.34
68746;SHT31;66104;45.456;11.064;2023-05-24T03:53:57;21.09;58.23
68746;SHT31;66104;45.456;11.064;2023-05-24T03:56:33;21.11;58.18
68746;SHT31;66104;45.456;11.064;2023-05-24T03:59:10;21.11;58.22
68746;SHT31;66104;45.456;11.064;2023-05-24T04:01:48;21.14;58.29
68746;SHT31;66104;45.456;11.064;2023-05-24T04:04:24;21.19;58.23
68746;SHT31;66104;45.456;11.064;2023-05-24T04:07:00;21.25;58.27
68746;SHT31;66104;45.456;11.064;2023-05-24T04:09:39;21.27;58.32
68746;SHT31;66104;45.456;11.064;2023-05-24T04:12:16;21.31;58.25
68746;SHT31;66104;45.456;11.064;2023-05-24T04:14:52;21.32;58.20
68746;SHT31;66104;45.456;11.064;2023-05-24T04:17:29;21.35;58.11
68746;SHT31;66104;45.456;11.064;2023-05-24T04:20:07;21.38;57.85
68746;SHT31;66104;45.456;11.064;2023-05-24T04:22:45;21.40;57.72
68746;SHT31;66104;45.456;11.064;2023-05-24T04:25:22;21.40;57.53
68746;SHT31;66104;45.456;11.064;2023-05-24T04:27:58;21.38;57.60
68746;SHT31;66104;45.456;11.064;2023-05-24T04:30:34;21.41;57.60
68746;SHT31;66104;45.456;11.064;2023-05-24T04:33:12;21.48;57.53
68746;SHT31;66104;45.456;11.064;2023-05-24T04:35:48;21.54;57.36
68746;SHT31;66104;45.456;11.064;2023-05-24T04:38:24;21.60;57.05
68746;SHT31;66104;45.456;11.064;2023-05-24T04:41:03;21.64;56.91
68746;SHT31;66104;45.456;11.064;2023-05-24T04:43:41;21.69;56.83
68746;SHT31;66104;45.456;11.064;2023-05-24T04:46:18;21.75;56.82
68746;SHT31;66104;45.456;11.064;2023-05-24T04:48:54;21.82;56.76
68746;SHT31;66104;45.456;11.064;2023-05-24T04:51:33;21.89;56.55
68746;SHT31;66104;45.456;11.064;2023-05-24T04:54:10;21.98;56.35
68746;SHT31;66104;45.456;11.064;2023-05-24T04:56:47;22.06;56.12
68746;SHT31;66104;45.456;11.064;2023-05-24T04:59:23;22.16;56.06
68746;SHT31;66104;45.456;11.064;2023-05-24T05:02:00;22.23;55.98
68746;SHT31;66104;45.456;11.064;2023-05-24T05:04:37;22.33;55.71
68746;SHT31;66104;45.456;11.064;2023-05-24T05:07:15;22.42;55.58
68746;SHT31;66104;45.456;11.064;2023-05-24T05:09:53;22.50;55.76
68746;SHT31;66104;45.456;11.064;2023-05-24T05:12:30;22.60;55.86
68746;SHT31;66104;45.456;11.064;2023-05-24T05:15:09;22.58;55.91
68746;SHT31;66104;45.456;11.064;2023-05-24T05:17:49;22.59;55.51
68746;SHT31;66104;45.456;11.064;2023-05-24T05:20:26;22.66;55.27
68746;SHT31;66104;45.456;11.064;2023-05-24T05:23:04;22.71;55.40
68746;SHT31;66104;45.456;11.064;2023-05-24T05:25:41;22.71;55.27
68746;SHT31;66104;45.456;11.064;2023-05-24T05:28:19;22.78;54.61
68746;SHT31;66104;45.456;11.064;2023-05-24T05:30:57;22.90;54.65
68746;SHT31;66104;45.456;11.064;2023-05-24T05:33:34;22.98;54.92
68746;SHT31;66104;45.456;11.064;2023-05-24T05:36:11;23.08;55.18
68746;SHT31;66104;45.456;11.064;2023-05-24T05:38:47;23.16;55.38
68746;SHT31;66104;45.456;11.064;2023-05-24T05:41:24;23.23;55.07
68746;SHT31;66104;45.456;11.064;2023-05-24T05:44:01;23.32;54.64
68746;SHT31;66104;45.456;11.064;2023-05-24T05:46:37;23.42;54.70
68746;SHT31;66104;45.456;11.064;2023-05-24T05:49:15;23.46;53.89
68746;SHT31;66104;45.456;11.064;2023-05-24T05:51:52;23.53;53.40
68746;SHT31;66104;45.456;11.064;2023-05-24T05:54:30;23.66;53.13
68746;SHT31;66104;45.456;11.064;2023-05-24T05:57:07;23.81;52.82
68746;SHT31;66104;45.456;11.064;2023-05-24T05:59:47;23.92;52.41
68746;SHT31;66104;45.456;11.064;2023-05-24T06:02:24;24.01;52.07
68746;SHT31;66104;45.456;11.064;2023-05-24T06:05:03;24.11;52.07
68746;SHT31;66104;45.456;11.064;2023-05-24T06:07:43;24.16;52.83
68746;SHT31;66104;45.456;11.064;2023-05-24T06:12:57;24.17;53.37
68746;SHT31;66104;45.456;11.064;2023-05-24T06:15:36;24.24;53.39
68746;SHT31;66104;45.456;11.064;2023-05-24T06:18:13;24.34;53.19
68746;SHT31;66104;45.456;11.064;2023-05-24T06:20:50;24.43;52.95
68746;SHT31;66104;45.456;11.064;2023-05-24T06:23:27;24.49;52.74
68746;SHT31;66104;45.456;11.064;2023-05-24T06:26:07;24.59;52.65
68746;SHT31;66104;45.456;11.064;2023-05-24T06:28:44;24.71;52.44
68746;SHT31;66104;45.456;11.064;2023-05-24T06:31:21;24.80;52.03
68746;SHT31;66104;45.456;11.064;2023-05-24T06:33:58;24.88;51.64
68746;SHT31;66104;45.456;11.064;2023-05-24T06:36:39;24.98;51.49
68746;SHT31;66104;45.456;11.064;2023-05-24T06:39:16;25.06;51.21
68746;SHT31;66104;45.456;11.064;2023-05-24T06:41:53;25.14;51.09
68746;SHT31;66104;45.456;11.064;2023-05-24T06:44:36;25.17;51.15
68746;SHT31;66104;45.456;11.064;2023-05-24T06:47:13;25.18;51.30
68746;SHT31;66104;45.456;11.064;2023-05-24T06:49:50;25.22;51.30
68746;SHT31;66104;45.456;11.064;2023-05-24T06:52:27;25.28;51.37
68746;SHT31;66104;45.456;11.064;2023-05-24T06:55:05;25.34;51.50
68746;SHT31;66104;45.456;11.064;2023-05-24T06:57:43;25.37;51.58
68746;SHT31;66104;45.456;11.064;2023-05-24T07:00:21;25.45;51.50
68746;SHT31;66104;45.456;11.064;2023-05-24T07:02:59;25.59;50.71
68746;SHT31;66104;45.456;11.064;2023-05-24T07:05:36;25.72;50.47
68746;SHT31;66104;45.456;11.064;2023-05-24T07:08:13;25.82;50.26
68746;SHT31;66104;45.456;11.064;2023-05-24T07:10:50;25.91;50.02
68746;SHT31;66104;45.456;11.064;2023-05-24T07:13:29;25.99;49.91
68746;SHT31;66104;45.456;11.064;2023-05-24T07:16:07;26.07;49.63
68746;SHT31;66104;45.456;11.064;2023-05-24T07:18:44;26.09;49.32
68746;SHT31;66104;45.456;11.064;2023-05-24T07:21:21;26.16;49.44
68746;SHT31;66104;45.456;11.064;2023-05-24T07:23:59;26.15;49.37
68746;SHT31;66104;45.456;11.064;2023-05-24T07:26:37;26.11;49.17
68746;SHT31;66104;45.456;11.064;2023-05-24T07:29:13;26.12;49.16
68746;SHT31;66104;45.456;11.064;2023-05-24T07:31:51;26.21;49.07
68746;SHT31;66104;45.456;11.064;2023-05-24T07:34:28;26.29;48.95
68746;SHT31;66104;45.456;11.064;2023-05-24T07:37:07;26.34;48.74
68746;SHT31;66104;45.456;11.064;2023-05-24T07:39:43;26.40;48.79
68746;SHT31;66104;45.456;11.064;2023-05-24T07:42:21;26.47;48.65
68746;SHT31;66104;45.456;11.064;2023-05-24T07:44:58;26.52;48.94
68746;SHT31;66104;45.456;11.064;2023-05-24T07:47:35;26.57;49.17
68746;SHT31;66104;45.456;11.064;2023-05-24T07:50:13;26.63;49.28
68746;SHT31;66104;45.456;11.064;2023-05-24T07:52:52;26.68;49.35
68746;SHT31;66104;45.456;11.064;2023-05-24T07:55:29;26.71;49.04
68746;SHT31;66104;45.456;11.064;2023-05-24T07:58:05;26.74;49.15
68746;SHT31;66104;45.456;11.064;2023-05-24T08:00:42;26.80;48.89
68746;SHT31;66104;45.456;11.064;2023-05-24T08:03:18;26.83;48.72
68746;SHT31;66104;45.456;11.064;2023-05-24T08:05:55;26.89;48.46
68746;SHT31;66104;45.456;11.064;2023-05-24T08:08:32;26.92;47.90
68746;SHT31;66104;45.456;11.064;2023-05-24T08:11:09;26.93;47.71
68746;SHT31;66104;45.456;11.064;2023-05-24T08:13:46;26.98;47.74
68746;SHT31;66104;45.456;11.064;2023-05-24T08:16:22;27.00;47.62
68746;SHT31;66104;45.456;11.064;2023-05-24T08:18:59;27.01;47.80
68746;SHT31;66104;45.456;11.064;2023-05-24T08:21:36;27.04;47.93
68746;SHT31;66104;45.456;11.064;2023-05-24T08:24:13;27.11;47.29
68746;SHT31;66104;45.456;11.064;2023-05-24T08:26:49;27.13;47.20
68746;SHT31;66104;45.456;11.064;2023-05-24T08:29:26;27.14;47.20
68746;SHT31;66104;45.456;11.064;2023-05-24T08:32:05;27.07;46.85
68746;SHT31;66104;45.456;11.064;2023-05-24T08:34:41;26.97;46.93
68746;SHT31;66104;45.456;11.064;2023-05-24T08:37:18;26.94;46.90
68746;SHT31;66104;45.456;11.064;2023-05-24T08:39:53;26.94;47.31
68746;SHT31;66104;45.456;11.064;2023-05-24T08:42:30;26.96;47.00
68746;SHT31;66104;45.456;11.064;2023-05-24T08:45:09;26.93;46.94
68746;SHT31;66104;45.456;11.064;2023-05-24T08:47:47;26.89;46.53
68746;SHT31;66104;45.456;11.064;2023-05-24T08:50:26;26.77;45.86
68746;SHT31;66104;45.456;11.064;2023-05-24T08:53:04;26.64;46.07
68746;SHT31;66104;45.456;11.064;2023-05-24T08:55:43;26.58;46.26
68746;SHT31;66104;45.456;11.064;2023-05-24T08:58:22;26.57;46.33
68746;SHT31;66104;45.456;11.064;2023-05-24T09:01:00;26.55;45.94
68746;SHT31;66104;45.456;11.064;2023-05-24T09:03:37;26.52;45.81
68746;SHT31;66104;45.456;11.064;2023-05-24T09:06:16;26.47;45.83
68746;SHT31;66104;45.456;11.064;2023-05-24T09:08:53;26.45;46.39
68746;SHT31;66104;45.456;11.064;2023-05-24T09:11:32;26.42;46.84
68746;SHT31;66104;45.456;11.064;2023-05-24T09:14:10;26.33;46.55
68746;SHT31;66104;45.456;11.064;2023-05-24T09:16:48;26.33;47.16
68746;SHT31;66104;45.456;11.064;2023-05-24T09:19:24;26.29;46.73
68746;SHT31;66104;45.456;11.064;2023-05-24T09:22:01;26.29;47.09
68746;SHT31;66104;45.456;11.064;2023-05-24T09:24:45;26.35;47.52
68746;SHT31;66104;45.456;11.064;2023-05-24T09:27:22;26.38;47.20
68746;SHT31;66104;45.456;11.064;2023-05-24T09:29:59;26.45;47.83
68746;SHT31;66104;45.456;11.064;2023-05-24T09:32:40;26.50;46.73
68746;SHT31;66104;45.456;11.064;2023-05-24T09:35:27;26.43;47.05
68746;SHT31;66104;45.456;11.064;2023-05-24T09:38:04;26.48;47.48
68746;SHT31;66104;45.456;11.064;2023-05-24T09:40:48;26.51;47.13
68746;SHT31;66104;45.456;11.064;2023-05-24T09:43:45;26.52;46.64
68746;SHT31;66104;45.456;11.064;2023-05-24T09:46:22;26.46;47.16
68746;SHT31;66104;45.456;11.064;2023-05-24T09:49:00;26.46;47.21
68746;SHT31;66104;45.456;11.064;2023-05-24T09:51:38;26.49;47.74
68746;SHT31;66104;45.456;11.064;2023-05-24T09:54:16;26.54;47.30
68746;SHT31;66104;45.456;11.064;2023-05-24T09:56:53;26.44;47.59
68746;SHT31;66104;45.456;11.064;2023-05-24T09:59:33;26.49;47.65
68746;SHT31;66104;45.456;11.064;2023-05-24T10:02:12;26.58;47.33
68746;SHT31;66104;45.456;11.064;2023-05-24T10:04:51;26.64;47.20
68746;SHT31;66104;45.456;11.064;2023-05-24T10:07:34;26.68;47.32
68746;SHT31;66104;45.456;11.064;2023-05-24T10:10:12;26.65;47.36
68746;SHT31;66104;45.456;11.064;2023-05-24T10:12:50;26.60;47.74
68746;SHT31;66104;45.456;11.064;2023-05-24T10:15:29;26.60;47.83
68746;SHT31;66104;45.456;11.064;2023-05-24T10:18:07;26.51;47.83
68746;SHT31;66104;45.456;11.064;2023-05-24T10:20:45;26.56;48.25
68746;SHT31;66104;45.456;11.064;2023-05-24T10:23:25;26.59;47.48
68746;SHT31;66104;45.456;11.064;2023-05-24T10:26:08;26.55;47.81
68746;SHT31;66104;45.456;11.064;2023-05-24T10:28:47;26.63;47.36
68746;SHT31;66104;45.456;11.064;2023-05-24T10:31:32;26.62;47.20
68746;SHT31;66104;45.456;11.064;2023-05-24T10:34:11;26.59;47.03
68746;SHT31;66104;45.456;11.064;2023-05-24T10:36:48;26.59;46.66
68746;SHT31;66104;45.456;11.064;2023-05-24T10:39:26;26.62;46.94
68746;SHT31;66104;45.456;11.064;2023-05-24T10:42:06;26.62;46.59
68746;SHT31;66104;45.456;11.064;2023-05-24T10:44:45;26.68;47.02
68746;SHT31;66104;45.456;11.064;2023-05-24T10:47:22;26.69;46.89
68746;SHT31;66104;45.456;11.064;2023-05-24T10:50:01;26.75;46.77
68746;SHT31;66104;45.456;11.064;2023-05-24T10:52:51;26.80;46.23
68746;SHT31;66104;45.456;11.064;2023-05-24T10:55:55;26.92;46.48
68746;SHT31;66104;45.456;11.064;2023-05-24T10:58:57;27.07;45.77
68746;SHT31;66104;45.456;11.064;2023-05-24T11:01:35;27.21;44.99
68746;SHT31;66104;45.456;11.064;2023-05-24T11:04:14;27.26;44.12
68746;SHT31;66104;45.456;11.064;2023-05-24T11:06:55;27.27;44.53
68746;SHT31;66104;45.456;11.064;2023-05-24T11:09:34;27.41;45.08
68746;SHT31;66104;45.456;11.064;2023-05-24T11:12:15;27.43;44.38
68746;SHT31;66104;45.456;11.064;2023-05-24T11:14:51;27.38;44.39
68746;SHT31;66104;45.456;11.064;2023-05-24T11:17:29;27.35;45.15
68746;SHT31;66104;45.456;11.064;2023-05-24T11:20:42;27.35;44.61
68746;SHT31;66104;45.456;11.064;2023-05-24T11:23:20;27.33;44.39
68746;SHT31;66104;45.456;11.064;2023-05-24T11:25:59;27.41;45.14
68746;SHT31;66104;45.456;11.064;2023-05-24T11:28:37;27.46;44.32
68746;SHT31;66104;45.456;11.064;2023-05-24T11:31:17;27.38;44.15
68746;SHT31;66104;45.456;11.064;2023-05-24T11:34:00;27.33;44.55
68746;SHT31;66104;45.456;11.064;2023-05-24T11:36:39;27.39;44.75
68746;SHT31;66104;45.456;11.064;2023-05-24T11:39:15;27.44;44.33
68746;SHT31;66104;45.456;11.064;2023-05-24T11:41:54;27.49;44.95
68746;SHT31;66104;45.456;11.064;2023-05-24T11:44:31;27.60;45.17
68746;SHT31;66104;45.456;11.064;2023-05-24T11:47:08;27.61;44.77
68746;SHT31;66104;45.456;11.064;2023-05-24T11:49:49;27.61;45.35
68746;SHT31;66104;45.456;11.064;2023-05-24T11:52:26;27.72;45.93
68746;SHT31;66104;45.456;11.064;2023-05-24T11:55:10;27.83;45.87
68746;SHT31;66104;45.456;11.064;2023-05-24T11:57:55;27.93;45.44
68746;SHT31;66104;45.456;11.064;2023-05-24T12:00:36;27.88;44.62
68746;SHT31;66104;45.456;11.064;2023-05-24T12:03:14;27.78;44.23
68746;SHT31;66104;45.456;11.064;2023-05-24T12:05:51;27.62;44.36
68746;SHT31;66104;45.456;11.064;2023-05-24T12:08:32;27.45;44.30
68746;SHT31;66104;45.456;11.064;2023-05-24T12:11:09;27.42;44.26
68746;SHT31;66104;45.456;11.064;2023-05-24T12:13:46;27.43;44.35
68746;SHT31;66104;45.456;11.064;2023-05-24T12:16:24;27.44;44.02
68746;SHT31;66104;45.456;11.064;2023-05-24T12:19:01;27.56;43.75
68746;SHT31;66104;45.456;11.064;2023-05-24T12:21:57;27.67;43.20
68746;SHT31;66104;45.456;11.064;2023-05-24T12:24:36;27.61;42.12
68746;SHT31;66104;45.456;11.064;2023-05-24T12:27:13;27.54;42.02
68746;SHT31;66104;45.456;11.064;2023-05-24T12:29:53;27.57;42.37
68746;SHT31;66104;45.456;11.064;2023-05-24T12:32:46;27.71;42.75
68746;SHT31;66104;45.456;11.064;2023-05-24T12:35:22;27.82;43.48
68746;SHT31;66104;45.456;11.064;2023-05-24T12:37:59;27.87;43.41
68746;SHT31;66104;45.456;11.064;2023-05-24T12:40:39;27.75;44.26
68746;SHT31;66104;45.456;11.064;2023-05-24T12:43:37;27.57;44.60
68746;SHT31;66104;45.456;11.064;2023-05-24T12:46:14;27.57;45.14
68746;SHT31;66104;45.456;11.064;2023-05-24T12:48:51;27.61;45.89
68746;SHT31;66104;45.456;11.064;2023-05-24T12:51:31;27.65;45.38
68746;SHT31;66104;45.456;11.064;2023-05-24T12:54:08;27.67;45.39
68746;SHT31;66104;45.456;11.064;2023-05-24T12:56:44;27.67;46.33
68746;SHT31;66104;45.456;11.064;2023-05-24T12:59:25;27.68;46.64
68746;SHT31;66104;45.456;11.064;2023-05-24T13:02:01;27.73;46.55
68746;SHT31;66104;45.456;11.064;2023-05-24T13:04:39;27.72;46.47
68746;SHT31;66104;45.456;11.064;2023-05-24T13:07:16;27.69;46.39
68746;SHT31;66104;45.456;11.064;2023-05-24T13:09:54;27.71;46.06
68746;SHT31;66104;45.456;11.064;2023-05-24T13:12:31;27.78;45.90
68746;SHT31;66104;45.456;11.064;2023-05-24T13:15:10;27.84;45.59
68746;SHT31;66104;45.456;11.064;2023-05-24T13:17:47;27.74;46.07
68746;SHT31;66104;45.456;11.064;2023-05-24T13:20:24;27.52;45.95
68746;SHT31;66104;45.456;11.064;2023-05-24T13:23:01;27.38;45.62
68746;SHT31;66104;45.456;11.064;2023-05-24T13:25:38;27.34;45.71
68746;SHT31;66104;45.456;11.064;2023-05-24T13:28:16;27.39;45.28
68746;SHT31;66104;45.456;11.064;2023-05-24T13:30:53;27.48;45.38
68746;SHT31;66104;45.456;11.064;2023-05-24T13:33:30;27.64;45.11
68746;SHT31;66104;45.456;11.064;2023-05-24T13:36:07;27.72;44.33
68746;SHT31;66104;45.456;11.064;2023-05-24T13:38:45;27.78;44.02
68746;SHT31;66104;45.456;11.064;2023-05-24T13:41:40;27.73;43.73
68746;SHT31;66104;45.456;11.064;2023-05-24T13:44:17;27.69;43.46
68746;SHT31;66104;45.456;11.064;2023-05-24T13:46:54;27.70;43.04
68746;SHT31;66104;45.456;11.064;2023-05-24T13:49:31;27.79;43.09
68746;SHT31;66104;45.456;11.064;2023-05-24T13:52:08;27.90;42.87
68746;SHT31;66104;45.456;11.064;2023-05-24T13:54:44;27.90;42.48
68746;SHT31;66104;45.456;11.064;2023-05-24T13:57:20;27.87;42.59
68746;SHT31;66104;45.456;11.064;2023-05-24T14:00:18;27.85;42.84
68746;SHT31;66104;45.456;11.064;2023-05-24T14:02:57;27.85;42.80
68746;SHT31;66104;45.456;11.064;2023-05-24T14:05:35;27.74;43.37
68746;SHT31;66104;45.456;11.064;2023-05-24T14:08:12;27.45;43.52
68746;SHT31;66104;45.456;11.064;2023-05-24T14:10:49;27.22;44.38
68746;SHT31;66104;45.456;11.064;2023-05-24T14:13:26;27.17;44.37
68746;SHT31;66104;45.456;11.064;2023-05-24T14:16:06;27.24;44.61
68746;SHT31;66104;45.456;11.064;2023-05-24T14:18:43;27.36;43.98
68746;SHT31;66104;45.456;11.064;2023-05-24T14:21:20;27.45;43.71
68746;SHT31;66104;45.456;11.064;2023-05-24T14:23:56;27.54;43.81
68746;SHT31;66104;45.456;11.064;2023-05-24T14:26:34;27.58;43.53
68746;SHT31;66104;45.456;11.064;2023-05-24T14:29:12;27.59;43.93
68746;SHT31;66104;45.456;11.064;2023-05-24T14:31:49;27.56;43.72
68746;SHT31;66104;45.456;11.064;2023-05-24T14:34:25;27.50;43.78
68746;SHT31;66104;45.456;11.064;2023-05-24T14:37:03;27.51;43.72
68746;SHT31;66104;45.456;11.064;2023-05-24T14:39:44;27.57;43.83
68746;SHT31;66104;45.456;11.064;2023-05-24T14:42:20;27.56;43.54
68746;SHT31;66104;45.456;11.064;2023-05-24T14:44:56;27.52;43.61
68746;SHT31;66104;45.456;11.064;2023-05-24T14:47:33;27.49;43.93
68746;SHT31;66104;45.456;11.064;2023-05-24T14:50:10;27.49;44.23
68746;SHT31;66104;45.456;11.064;2023-05-24T14:52:46;27.49;44.40
68746;SHT31;66104;45.456;11.064;2023-05-24T14:55:23;27.48;44.85
68746;SHT31;66104;45.456;11.064;2023-05-24T14:58:00;27.51;45.26
68746;SHT31;66104;45.456;11.064;2023-05-24T15:00:37;27.62;44.93
68746;SHT31;66104;45.456;11.064;2023-05-24T15:03:14;27.65;45.03
68746;SHT31;66104;45.456;11.064;2023-05-24T15:05:50;27.63;44.85
68746;SHT31;66104;45.456;11.064;2023-05-24T15:08:28;27.54;44.10
68746;SHT31;66104;45.456;11.064;2023-05-24T15:11:06;27.50;44.78
68746;SHT31;66104;45.456;11.064;2023-05-24T15:13:45;27.51;44.61
68746;SHT31;66104;45.456;11.064;2023-05-24T15:16:26;27.46;44.62
68746;SHT31;66104;45.456;11.064;2023-05-24T15:19:03;27.38;44.52
68746;SHT31;66104;45.456;11.064;2023-05-24T15:21:40;27.24;44.52
68746;SHT31;66104;45.456;11.064;2023-05-24T15:24:17;27.07;44.68
68746;SHT31;66104;45.456;11.064;2023-05-24T15:26:52;26.92;44.55
68746;SHT31;66104;45.456;11.064;2023-05-24T15:29:29;26.78;44.62
68746;SHT31;66104;45.456;11.064;2023-05-24T15:32:07;26.72;44.66
68746;SHT31;66104;45.456;11.064;2023-05-24T15:34:44;26.64;44.82
68746;SHT31;66104;45.456;11.064;2023-05-24T15:37:21;26.49;44.68
68746;SHT31;66104;45.456;11.064;2023-05-24T15:39:58;26.41;44.86
68746;SHT31;66104;45.456;11.064;2023-05-24T15:42:35;26.35;45.09
68746;SHT31;66104;45.456;11.064;2023-05-24T15:45:12;26.26;45.20
68746;SHT31;66104;45.456;11.064;2023-05-24T15:47:49;26.19;45.39
68746;SHT31;66104;45.456;11.064;2023-05-24T15:50:28;26.15;45.61
68746;SHT31;66104;45.456;11.064;2023-05-24T15:53:11;26.14;45.74
68746;SHT31;66104;45.456;11.064;2023-05-24T15:55:49;26.10;45.41
68746;SHT31;66104;45.456;11.064;2023-05-24T15:58:26;26.05;45.18
68746;SHT31;66104;45.456;11.064;2023-05-24T16:01:03;26.05;44.73
68746;SHT31;66104;45.456;11.064;2023-05-24T16:03:41;26.01;44.35
68746;SHT31;66104;45.456;11.064;2023-05-24T16:06:18;25.97;44.20
68746;SHT31;66104;45.456;11.064;2023-05-24T16:08:55;25.99;43.69
68746;SHT31;66104;45.456;11.064;2023-05-24T16:11:32;25.98;43.16
68746;SHT31;66104;45.456;11.064;2023-05-24T16:14:09;25.96;42.63
68746;SHT31;66104;45.456;11.064;2023-05-24T16:16:47;25.94;42.92
68746;SHT31;66104;45.456;11.064;2023-05-24T16:19:27;25.98;43.36
68746;SHT31;66104;45.456;11.064;2023-05-24T16:22:04;26.05;43.21
68746;SHT31;66104;45.456;11.064;2023-05-24T16:24:42;26.07;43.06
68746;SHT31;66104;45.456;11.064;2023-05-24T16:27:18;26.06;43.27